Terminal Aerodrome Forecast
Issued by NWS Cleveland, OH

Home | Current Version | Previous Version | Text Only | Print | Product List | Glossary On
Versions: 1 2 3 4 5 6 7 8 9 10 11 12 13 14 15 16
000
FTUS41 KCLE 021729
TAFYNG
TAF
KYNG 021729Z 0218/0318 35010KT P6SM SCT025 BKN035
      TEMPO 0218/0220 BKN025
     FM022000 01008KT P6SM SCT035
     FM030100 04004KT P6SM SKC
      TEMPO 0309/0312 4SM BR=

USA.gov is the U.S. government's official web portal to all federal, state and local government web resources and services.